トロンハイム の空港の天気 - METARとTAF

Trondheim / Vaernes ( ENVA / TRD ) - ノルウェー ヌール・トロンデラーグ県、Stjordal
飛行場実況気象(Metar)
観測時間08/25 20:50 CEST (08/25 18:50 UTC)
風向・風速不定 1m/s
視程10km以上
天気現象
全天の4割程度の雲 雲底高度 490m
全天の8割程度の雲 雲底高度 940m
気温16℃
湿度82%
気圧1021hPa
METARENVA 251850Z VRB02KT 9999 SCT016 BKN031 16/13 Q1021 RMK WIND 670FT VRB02KT
過去の天気等 Google飛行場航空写真 Wunderground天気予報

過去48時間のMETAR

飛行場予報(TAF)
発表時間: -
25日20時 CEST から 確率 40% で
天気現象弱い雨霧雨
全天の8割程度の雲 雲底高度 370m
TAF ENVA 2518/2618 VRB07KT 9999 SCT020 BKN060
PROB40 2518/2521 -RADZ BKN012